sensor_id;sensor_type;location;lat;lon;timestamp;pressure;altitude;pressure_sealevel;temperature;humidity
39405;BME280;25121;51.090;17.038;2023-02-10T00:01:23;101664.13;;;1.20;52.06
39405;BME280;25121;51.090;17.038;2023-02-10T00:02:46;101673.03;;;1.19;52.13
39405;BME280;25121;51.090;17.038;2023-02-10T00:04:11;101671.28;;;1.18;52.02
39405;BME280;25121;51.090;17.038;2023-02-10T00:05:41;101681.81;;;1.20;52.20
39405;BME280;25121;51.090;17.038;2023-02-10T00:07:04;101677.59;;;1.16;51.97
39405;BME280;25121;51.090;17.038;2023-02-10T00:08:28;101668.84;;;1.14;52.47
39405;BME280;25121;51.090;17.038;2023-02-10T00:09:50;101666.31;;;1.12;52.06
39405;BME280;25121;51.090;17.038;2023-02-10T00:11:14;101677.03;;;1.09;52.20
39405;BME280;25121;51.090;17.038;2023-02-10T00:12:39;101677.97;;;1.08;51.95
39405;BME280;25121;51.090;17.038;2023-02-10T00:14:01;101670.34;;;1.02;52.13
39405;BME280;25121;51.090;17.038;2023-02-10T00:15:24;101689.41;;;1.08;52.14
39405;BME280;25121;51.090;17.038;2023-02-10T00:16:47;101685.22;;;1.04;52.07
39405;BME280;25121;51.090;17.038;2023-02-10T00:18:10;101686.34;;;0.99;52.25
39405;BME280;25121;51.090;17.038;2023-02-10T00:19:35;101681.28;;;0.94;52.16
39405;BME280;25121;51.090;17.038;2023-02-10T00:21:06;101697.88;;;0.98;52.27
39405;BME280;25121;51.090;17.038;2023-02-10T00:22:27;101693.50;;;0.97;52.21
39405;BME280;25121;51.090;17.038;2023-02-10T00:23:50;101691.81;;;0.96;52.18
39405;BME280;25121;51.090;17.038;2023-02-10T00:25:12;101697.16;;;0.94;52.55
39405;BME280;25121;51.090;17.038;2023-02-10T00:26:39;101678.22;;;0.84;52.07
39405;BME280;25121;51.090;17.038;2023-02-10T00:28:00;101686.03;;;0.88;52.09
39405;BME280;25121;51.090;17.038;2023-02-10T00:29:27;101686.09;;;0.86;52.45
39405;BME280;25121;51.090;17.038;2023-02-10T00:30:53;101685.47;;;0.81;52.54
39405;BME280;25121;51.090;17.038;2023-02-10T00:32:19;101695.84;;;0.85;52.38
39405;BME280;25121;51.090;17.038;2023-02-10T00:33:41;101685.31;;;0.84;52.50
39405;BME280;25121;51.090;17.038;2023-02-10T00:35:05;101684.59;;;0.80;52.39
39405;BME280;25121;51.090;17.038;2023-02-10T00:36:28;101682.88;;;0.79;52.46
39405;BME280;25121;51.090;17.038;2023-02-10T00:37:54;101679.53;;;0.76;52.20
39405;BME280;25121;51.090;17.038;2023-02-10T00:39:17;101689.91;;;0.80;52.49
39405;BME280;25121;51.090;17.038;2023-02-10T00:40:39;101694.34;;;0.80;52.36
39405;BME280;25121;51.090;17.038;2023-02-10T00:42:07;101689.13;;;0.78;52.50
39405;BME280;25121;51.090;17.038;2023-02-10T00:43:29;101677.94;;;0.72;52.56
39405;BME280;25121;51.090;17.038;2023-02-10T00:44:51;101687.53;;;0.74;52.70
39405;BME280;25121;51.090;17.038;2023-02-10T00:46:21;101701.72;;;0.73;52.30
39405;BME280;25121;51.090;17.038;2023-02-10T00:47:44;101703.56;;;0.71;52.63
39405;BME280;25121;51.090;17.038;2023-02-10T00:49:10;101698.44;;;0.68;52.49
39405;BME280;25121;51.090;17.038;2023-02-10T00:50:32;101706.38;;;0.68;52.92
39405;BME280;25121;51.090;17.038;2023-02-10T00:51:57;101694.97;;;0.66;52.72
39405;BME280;25121;51.090;17.038;2023-02-10T00:53:20;101685.72;;;0.57;52.87
39405;BME280;25121;51.090;17.038;2023-02-10T00:54:41;101703.88;;;0.65;52.81
39405;BME280;25121;51.090;17.038;2023-02-10T00:56:05;101700.34;;;0.64;52.69
39405;BME280;25121;51.090;17.038;2023-02-10T00:57:32;101689.22;;;0.58;53.01
39405;BME280;25121;51.090;17.038;2023-02-10T00:58:54;101704.00;;;0.62;53.00
39405;BME280;25121;51.090;17.038;2023-02-10T01:00:16;101689.25;;;0.56;52.91
39405;BME280;25121;51.090;17.038;2023-02-10T01:01:38;101697.28;;;0.55;52.87
39405;BME280;25121;51.090;17.038;2023-02-10T01:03:08;101688.47;;;0.54;52.96
39405;BME280;25121;51.090;17.038;2023-02-10T01:04:33;101699.16;;;0.53;53.05
39405;BME280;25121;51.090;17.038;2023-02-10T01:05:56;101705.22;;;0.55;52.91
39405;BME280;25121;51.090;17.038;2023-02-10T01:07:17;101698.34;;;0.51;53.13
39405;BME280;25121;51.090;17.038;2023-02-10T01:08:40;101695.72;;;0.51;53.15
39405;BME280;25121;51.090;17.038;2023-02-10T01:10:03;101693.84;;;0.53;53.03
39405;BME280;25121;51.090;17.038;2023-02-10T01:11:26;101686.97;;;0.49;53.19
39405;BME280;25121;51.090;17.038;2023-02-10T01:12:50;101681.84;;;0.46;53.31
39405;BME280;25121;51.090;17.038;2023-02-10T01:14:13;101692.13;;;0.52;53.14
39405;BME280;25121;51.090;17.038;2023-02-10T01:15:41;101694.97;;;0.47;53.29
39405;BME280;25121;51.090;17.038;2023-02-10T01:17:02;101697.56;;;0.49;53.18
39405;BME280;25121;51.090;17.038;2023-02-10T01:18:26;101694.06;;;0.48;53.48
39405;BME280;25121;51.090;17.038;2023-02-10T01:19:47;101686.13;;;0.48;53.52
39405;BME280;25121;51.090;17.038;2023-02-10T01:21:13;101680.25;;;0.41;53.47
39405;BME280;25121;51.090;17.038;2023-02-10T01:22:36;101691.56;;;0.45;53.41
39405;BME280;25121;51.090;17.038;2023-02-10T01:24:00;101678.41;;;0.43;53.35
39405;BME280;25121;51.090;17.038;2023-02-10T01:25:24;101681.06;;;0.43;53.66
39405;BME280;25121;51.090;17.038;2023-02-10T01:26:45;101676.69;;;0.42;53.45
39405;BME280;25121;51.090;17.038;2023-02-10T01:28:10;101681.25;;;0.39;53.42
39405;BME280;25121;51.090;17.038;2023-02-10T01:29:33;101666.25;;;0.39;53.50
39405;BME280;25121;51.090;17.038;2023-02-10T01:30:55;101667.19;;;0.38;53.71
39405;BME280;25121;51.090;17.038;2023-02-10T01:32:16;101661.09;;;0.36;53.44
39405;BME280;25121;51.090;17.038;2023-02-10T01:33:41;101673.41;;;0.37;53.60
39405;BME280;25121;51.090;17.038;2023-02-10T01:35:03;101671.78;;;0.35;53.73
39405;BME280;25121;51.090;17.038;2023-02-10T01:36:28;101675.31;;;0.34;53.58
39405;BME280;25121;51.090;17.038;2023-02-10T01:37:51;101660.66;;;0.27;53.63
39405;BME280;25121;51.090;17.038;2023-02-10T01:39:12;101667.41;;;0.34;53.63
39405;BME280;25121;51.090;17.038;2023-02-10T01:40:36;101668.34;;;0.33;53.85
39405;BME280;25121;51.090;17.038;2023-02-10T01:41:58;101666.59;;;0.32;53.56
39405;BME280;25121;51.090;17.038;2023-02-10T01:43:22;101669.34;;;0.30;53.86
39405;BME280;25121;51.090;17.038;2023-02-10T01:46:36;101666.81;;;0.27;53.72
39405;BME280;25121;51.090;17.038;2023-02-10T01:48:00;101669.44;;;0.27;53.42
39405;BME280;25121;51.090;17.038;2023-02-10T01:49:23;101656.47;;;0.23;53.91
39405;BME280;25121;51.090;17.038;2023-02-10T01:50:51;101659.81;;;0.26;53.79
39405;BME280;25121;51.090;17.038;2023-02-10T01:52:17;101659.13;;;0.23;53.82
39405;BME280;25121;51.090;17.038;2023-02-10T01:53:39;101666.97;;;0.24;53.61
39405;BME280;25121;51.090;17.038;2023-02-10T01:55:05;101665.25;;;0.23;53.68
39405;BME280;25121;51.090;17.038;2023-02-10T01:56:32;101651.31;;;0.19;53.74
39405;BME280;25121;51.090;17.038;2023-02-10T01:57:55;101653.09;;;0.19;53.73
39405;BME280;25121;51.090;17.038;2023-02-10T01:59:18;101654.81;;;0.20;53.82
39405;BME280;25121;51.090;17.038;2023-02-10T02:00:42;101657.53;;;0.18;53.73
39405;BME280;25121;51.090;17.038;2023-02-10T02:02:06;101650.59;;;0.16;53.86
39405;BME280;25121;51.090;17.038;2023-02-10T02:03:29;101659.31;;;0.18;53.67
39405;BME280;25121;51.090;17.038;2023-02-10T02:04:53;101651.50;;;0.15;53.97
39405;BME280;25121;51.090;17.038;2023-02-10T02:06:16;101655.16;;;0.12;53.84
39405;BME280;25121;51.090;17.038;2023-02-10T02:07:38;101667.31;;;0.16;54.05
39405;BME280;25121;51.090;17.038;2023-02-10T02:09:04;101669.09;;;0.16;54.05
39405;BME280;25121;51.090;17.038;2023-02-10T02:10:39;101677.94;;;0.15;53.97
39405;BME280;25121;51.090;17.038;2023-02-10T02:12:09;101672.81;;;0.12;53.73
39405;BME280;25121;51.090;17.038;2023-02-10T02:14:12;101687.75;;;0.13;53.94
39405;BME280;25121;51.090;17.038;2023-02-10T02:15:42;101685.13;;;0.13;53.88
39405;BME280;25121;51.090;17.038;2023-02-10T02:17:15;101684.22;;;0.12;53.87
39405;BME280;25121;51.090;17.038;2023-02-10T02:18:45;101682.53;;;0.11;54.30
39405;BME280;25121;51.090;17.038;2023-02-10T02:20:28;101668.72;;;0.05;53.75
39405;BME280;25121;51.090;17.038;2023-02-10T02:22:42;101685.38;;;0.07;54.02
39405;BME280;25121;51.090;17.038;2023-02-10T02:24:34;101687.97;;;0.08;54.05
39405;BME280;25121;51.090;17.038;2023-02-10T02:26:26;101684.53;;;0.06;54.06
39405;BME280;25121;51.090;17.038;2023-02-10T02:28:08;101661.22;;;-0.05;54.16
39405;BME280;25121;51.090;17.038;2023-02-10T02:33:28;101670.59;;;0.03;54.23
39405;BME280;25121;51.090;17.038;2023-02-10T02:34:56;101675.88;;;0.03;54.01
39405;BME280;25121;51.090;17.038;2023-02-10T02:36:26;101680.28;;;0.02;54.13
39405;BME280;25121;51.090;17.038;2023-02-10T02:37:50;101680.28;;;0.02;53.91
39405;BME280;25121;51.090;17.038;2023-02-10T02:39:13;101672.34;;;0.02;54.02
39405;BME280;25121;51.090;17.038;2023-02-10T02:40:36;101670.72;;;-0.01;54.06
39405;BME280;25121;51.090;17.038;2023-02-10T02:42:14;101681.22;;;0.01;54.33
39405;BME280;25121;51.090;17.038;2023-02-10T02:43:37;101678.59;;;0.01;54.12
39405;BME280;25121;51.090;17.038;2023-02-10T02:45:05;101680.28;;;0.02;54.02
39405;BME280;25121;51.090;17.038;2023-02-10T02:46:35;101676.88;;;0.00;54.28
39405;BME280;25121;51.090;17.038;2023-02-10T02:48:16;101675.09;;;0.01;53.84
39405;BME280;25121;51.090;17.038;2023-02-10T02:49:48;101675.09;;;0.01;54.44
39405;BME280;25121;51.090;17.038;2023-02-10T02:51:17;101674.22;;;0.00;54.14
39405;BME280;25121;51.090;17.038;2023-02-10T02:52:51;101670.06;;;-0.06;54.05
39405;BME280;25121;51.090;17.038;2023-02-10T02:54:21;101674.28;;;-0.02;54.05
39405;BME280;25121;51.090;17.038;2023-02-10T02:55:52;101673.50;;;-0.04;53.96
39405;BME280;25121;51.090;17.038;2023-02-10T02:57:28;101676.19;;;-0.05;54.11
39405;BME280;25121;51.090;17.038;2023-02-10T02:58:54;101678.94;;;-0.07;53.94
39405;BME280;25121;51.090;17.038;2023-02-10T03:00:23;101658.97;;;-0.14;54.17
39405;BME280;25121;51.090;17.038;2023-02-10T03:01:50;101670.19;;;-0.09;54.00
39405;BME280;25121;51.090;17.038;2023-02-10T03:03:16;101672.91;;;-0.10;54.09
39405;BME280;25121;51.090;17.038;2023-02-10T03:04:38;101663.22;;;-0.10;53.99
39405;BME280;25121;51.090;17.038;2023-02-10T03:06:03;101668.50;;;-0.10;54.11
39405;BME280;25121;51.090;17.038;2023-02-10T03:07:31;101670.25;;;-0.10;53.98
39405;BME280;25121;51.090;17.038;2023-02-10T03:08:54;101668.50;;;-0.10;53.96
39405;BME280;25121;51.090;17.038;2023-02-10T03:10:15;101670.19;;;-0.09;53.99
39405;BME280;25121;51.090;17.038;2023-02-10T03:11:38;101665.13;;;-0.13;54.12
39405;BME280;25121;51.090;17.038;2023-02-10T03:13:07;101661.47;;;-0.11;54.60
39405;BME280;25121;51.090;17.038;2023-02-10T03:14:29;101666.75;;;-0.11;54.31
39405;BME280;25121;51.090;17.038;2023-02-10T03:15:52;101665.78;;;-0.08;54.17
39405;BME280;25121;51.090;17.038;2023-02-10T03:17:15;101671.06;;;-0.08;54.29
39405;BME280;25121;51.090;17.038;2023-02-10T03:18:38;101666.63;;;-0.08;54.08
39405;BME280;25121;51.090;17.038;2023-02-10T03:19:59;101670.06;;;-0.06;54.32
39405;BME280;25121;51.090;17.038;2023-02-10T03:21:23;101670.06;;;-0.06;54.05
39405;BME280;25121;51.090;17.038;2023-02-10T03:22:49;101675.34;;;-0.06;54.33
39405;BME280;25121;51.090;17.038;2023-02-10T03:24:10;101672.69;;;-0.06;54.14
39405;BME280;25121;51.090;17.038;2023-02-10T03:25:33;101671.00;;;-0.07;54.29
39405;BME280;25121;51.090;17.038;2023-02-10T03:26:55;101682.38;;;-0.05;54.16
39405;BME280;25121;51.090;17.038;2023-02-10T03:28:19;101670.34;;;-0.12;53.85
39405;BME280;25121;51.090;17.038;2023-02-10T03:29:41;101686.78;;;-0.05;54.36
39405;BME280;25121;51.090;17.038;2023-02-10T03:31:07;101686.78;;;-0.05;54.01
39405;BME280;25121;51.090;17.038;2023-02-10T03:32:30;101690.28;;;-0.05;54.04
39405;BME280;25121;51.090;17.038;2023-02-10T03:33:52;101696.50;;;-0.06;54.23
39405;BME280;25121;51.090;17.038;2023-02-10T03:35:17;101690.34;;;-0.06;54.12
39405;BME280;25121;51.090;17.038;2023-02-10T03:36:43;101698.22;;;-0.05;54.09
39405;BME280;25121;51.090;17.038;2023-02-10T03:38:05;101687.75;;;-0.08;54.31
39405;BME280;25121;51.090;17.038;2023-02-10T03:39:52;101696.50;;;-0.06;54.30
39405;BME280;25121;51.090;17.038;2023-02-10T03:41:41;101688.91;;;-0.13;54.20
39405;BME280;25121;51.090;17.038;2023-02-10T03:43:03;101701.78;;;-0.06;54.29
39405;BME280;25121;51.090;17.038;2023-02-10T03:44:47;101695.84;;;-0.11;54.49
39405;BME280;25121;51.090;17.038;2023-02-10T03:49:49;101703.84;;;-0.12;54.31
39405;BME280;25121;51.090;17.038;2023-02-10T03:51:25;101690.03;;;-0.19;54.23
39405;BME280;25121;51.090;17.038;2023-02-10T03:52:49;101694.28;;;-0.15;54.22
39405;BME280;25121;51.090;17.038;2023-02-10T03:54:12;101696.03;;;-0.15;54.47
39405;BME280;25121;51.090;17.038;2023-02-10T03:55:37;101703.91;;;-0.14;54.44
39405;BME280;25121;51.090;17.038;2023-02-10T03:56:59;101695.19;;;-0.16;54.71
39405;BME280;25121;51.090;17.038;2023-02-10T03:58:22;101697.13;;;-0.19;54.88
39405;BME280;25121;51.090;17.038;2023-02-10T03:59:45;101689.25;;;-0.21;54.49
39405;BME280;25121;51.090;17.038;2023-02-10T04:01:11;101710.19;;;-0.16;54.44
39405;BME280;25121;51.090;17.038;2023-02-10T04:02:34;101704.84;;;-0.15;54.44
39405;BME280;25121;51.090;17.038;2023-02-10T04:03:57;101709.25;;;-0.15;54.85
39405;BME280;25121;51.090;17.038;2023-02-10T04:05:18;101711.88;;;-0.15;54.52
39405;BME280;25121;51.090;17.038;2023-02-10T04:06:41;101716.31;;;-0.16;54.55
39405;BME280;25121;51.090;17.038;2023-02-10T04:08:04;101708.41;;;-0.16;54.96
39405;BME280;25121;51.090;17.038;2023-02-10T04:09:26;101711.88;;;-0.15;54.69
39405;BME280;25121;51.090;17.038;2023-02-10T04:10:49;101718.97;;;-0.16;55.13
39405;BME280;25121;51.090;17.038;2023-02-10T04:12:10;101705.88;;;-0.19;54.89
39405;BME280;25121;51.090;17.038;2023-02-10T04:13:33;101711.03;;;-0.16;54.73
39405;BME280;25121;51.090;17.038;2023-02-10T04:14:55;101714.53;;;-0.15;54.61
39405;BME280;25121;51.090;17.038;2023-02-10T04:16:17;101718.09;;;-0.16;54.46
39405;BME280;25121;51.090;17.038;2023-02-10T04:17:42;101699.81;;;-0.21;54.91
39405;BME280;25121;51.090;17.038;2023-02-10T04:19:04;101711.31;;;-0.22;54.83
39405;BME280;25121;51.090;17.038;2023-02-10T04:20:27;101712.09;;;-0.20;54.82
39405;BME280;25121;51.090;17.038;2023-02-10T04:21:51;101719.03;;;-0.17;54.88
39405;BME280;25121;51.090;17.038;2023-02-10T04:23:15;101717.31;;;-0.18;54.97
39405;BME280;25121;51.090;17.038;2023-02-10T04:24:37;101716.47;;;-0.19;54.75
39405;BME280;25121;51.090;17.038;2023-02-10T04:25:59;101706.09;;;-0.24;54.88
39405;BME280;25121;51.090;17.038;2023-02-10T04:27:23;101721.75;;;-0.19;54.99
39405;BME280;25121;51.090;17.038;2023-02-10T04:28:45;101723.59;;;-0.21;54.83
39405;BME280;25121;51.090;17.038;2023-02-10T04:30:09;101708.72;;;-0.24;55.23
39405;BME280;25121;51.090;17.038;2023-02-10T04:31:33;101717.59;;;-0.25;54.82
39405;BME280;25121;51.090;17.038;2023-02-10T04:32:57;101719.25;;;-0.22;54.85
39405;BME280;25121;51.090;17.038;2023-02-10T04:34:20;101724.53;;;-0.22;54.61
39405;BME280;25121;51.090;17.038;2023-02-10T04:35:42;101720.94;;;-0.21;54.99
39405;BME280;25121;51.090;17.038;2023-02-10T04:37:06;101721.88;;;-0.22;54.83
39405;BME280;25121;51.090;17.038;2023-02-10T04:38:31;101718.31;;;-0.21;54.85
39405;BME280;25121;51.090;17.038;2023-02-10T04:39:57;101713.16;;;-0.24;54.99
39405;BME280;25121;51.090;17.038;2023-02-10T04:41:19;101717.50;;;-0.23;54.77
39405;BME280;25121;51.090;17.038;2023-02-10T04:42:41;101714.00;;;-0.24;54.98
39405;BME280;25121;51.090;17.038;2023-02-10T04:44:04;101710.53;;;-0.24;54.88
39405;BME280;25121;51.090;17.038;2023-02-10T04:45:29;101721.09;;;-0.24;54.84
39405;BME280;25121;51.090;17.038;2023-02-10T04:46:52;101714.22;;;-0.28;55.07
39405;BME280;25121;51.090;17.038;2023-02-10T04:48:14;101714.94;;;-0.25;54.84
39405;BME280;25121;51.090;17.038;2023-02-10T04:49:37;101715.84;;;-0.26;55.05
39405;BME280;25121;51.090;17.038;2023-02-10T04:50:59;101720.22;;;-0.25;54.63
39405;BME280;25121;51.090;17.038;2023-02-10T04:52:22;101713.31;;;-0.27;55.15
39405;BME280;25121;51.090;17.038;2023-02-10T04:53:46;101720.22;;;-0.25;54.86
39405;BME280;25121;51.090;17.038;2023-02-10T04:55:08;101720.28;;;-0.26;54.67
39405;BME280;25121;51.090;17.038;2023-02-10T04:56:30;101713.34;;;-0.29;54.93
39405;BME280;25121;51.090;17.038;2023-02-10T04:57:55;101712.56;;;-0.31;55.31
39405;BME280;25121;51.090;17.038;2023-02-10T04:59:18;101718.59;;;-0.27;54.99
39405;BME280;25121;51.090;17.038;2023-02-10T05:00:40;101722.97;;;-0.28;54.90
39405;BME280;25121;51.090;17.038;2023-02-10T05:02:02;101711.56;;;-0.28;54.57
39405;BME280;25121;51.090;17.038;2023-02-10T05:03:25;101710.72;;;-0.29;54.99
39405;BME280;25121;51.090;17.038;2023-02-10T05:04:47;101715.16;;;-0.29;55.24
39405;BME280;25121;51.090;17.038;2023-02-10T05:06:11;101710.75;;;-0.30;54.84
39405;BME280;25121;51.090;17.038;2023-02-10T05:07:34;101711.66;;;-0.30;55.13
39405;BME280;25121;51.090;17.038;2023-02-10T05:08:58;101707.22;;;-0.29;55.01
39405;BME280;25121;51.090;17.038;2023-02-10T05:10:20;101708.06;;;-0.29;55.03
39405;BME280;25121;51.090;17.038;2023-02-10T05:11:43;101710.72;;;-0.29;55.24
39405;BME280;25121;51.090;17.038;2023-02-10T05:13:05;101709.91;;;-0.31;54.94
39405;BME280;25121;51.090;17.038;2023-02-10T05:14:28;101713.34;;;-0.29;54.93
39405;BME280;25121;51.090;17.038;2023-02-10T05:15:50;101707.22;;;-0.29;54.96
39405;BME280;25121;51.090;17.038;2023-02-10T05:17:13;101717.78;;;-0.29;54.94
39405;BME280;25121;51.090;17.038;2023-02-10T05:18:36;101725.63;;;-0.28;55.04
39405;BME280;25121;51.090;17.038;2023-02-10T05:20:00;101722.94;;;-0.26;55.25
39405;BME280;25121;51.090;17.038;2023-02-10T05:21:21;101726.50;;;-0.27;54.90
39405;BME280;25121;51.090;17.038;2023-02-10T05:22:43;101731.72;;;-0.26;54.69
39405;BME280;25121;51.090;17.038;2023-02-10T05:24:07;101734.28;;;-0.24;54.96
39405;BME280;25121;51.090;17.038;2023-02-10T05:25:29;101740.50;;;-0.25;54.82
39405;BME280;25121;51.090;17.038;2023-02-10T05:26:53;101740.38;;;-0.22;55.25
39405;BME280;25121;51.090;17.038;2023-02-10T05:28:17;101729.72;;;-0.20;55.01
39405;BME280;25121;51.090;17.038;2023-02-10T05:29:39;101735.75;;;-0.17;55.26
39405;BME280;25121;51.090;17.038;2023-02-10T05:31:04;101739.06;;;-0.12;55.14
39405;BME280;25121;51.090;17.038;2023-02-10T05:32:29;101737.97;;;-0.08;54.85
39405;BME280;25121;51.090;17.038;2023-02-10T05:33:50;101732.50;;;-0.03;55.26
39405;BME280;25121;51.090;17.038;2023-02-10T05:35:14;101735.78;;;0.02;55.11
39405;BME280;25121;51.090;17.038;2023-02-10T05:36:36;101727.81;;;0.04;55.00
39405;BME280;25121;51.090;17.038;2023-02-10T05:38:01;101723.19;;;0.09;54.71
39405;BME280;25121;51.090;17.038;2023-02-10T05:39:25;101727.25;;;0.16;54.88
39405;BME280;25121;51.090;17.038;2023-02-10T05:40:48;101734.06;;;0.21;54.54
39405;BME280;25121;51.090;17.038;2023-02-10T05:42:11;101738.19;;;0.27;54.80
39405;BME280;25121;51.090;17.038;2023-02-10T05:43:34;101746.78;;;0.32;54.64
39405;BME280;25121;51.090;17.038;2023-02-10T05:44:56;101728.41;;;0.29;54.72
39405;BME280;25121;51.090;17.038;2023-02-10T05:46:19;101744.69;;;0.40;54.41
39405;BME280;25121;51.090;17.038;2023-02-10T05:48:04;101739.25;;;0.43;54.35
39405;BME280;25121;51.090;17.038;2023-02-10T05:49:27;101747.75;;;0.50;54.39
39405;BME280;25121;51.090;17.038;2023-02-10T05:50:51;101759.00;;;0.55;54.34
39405;BME280;25121;51.090;17.038;2023-02-10T05:52:14;101753.75;;;0.54;54.00
39405;BME280;25121;51.090;17.038;2023-02-10T05:53:36;101749.22;;;0.57;54.08
39405;BME280;25121;51.090;17.038;2023-02-10T05:55:00;101759.28;;;0.68;53.83
39405;BME280;25121;51.090;17.038;2023-02-10T05:56:23;101758.28;;;0.71;54.11
39405;BME280;25121;51.090;17.038;2023-02-10T05:57:47;101758.97;;;0.74;54.00
39405;BME280;25121;51.090;17.038;2023-02-10T05:59:11;101760.63;;;0.77;53.76
39405;BME280;25121;51.090;17.038;2023-02-10T06:00:35;101765.72;;;0.81;53.76
39405;BME280;25121;51.090;17.038;2023-02-10T06:01:57;101763.84;;;0.83;53.50
39405;BME280;25121;51.090;17.038;2023-02-10T06:03:22;101756.78;;;0.84;53.67
39405;BME280;25121;51.090;17.038;2023-02-10T06:04:44;101762.78;;;0.88;53.44
39405;BME280;25121;51.090;17.038;2023-02-10T06:06:06;101766.94;;;0.93;53.30
39405;BME280;25121;51.090;17.038;2023-02-10T06:07:29;101776.56;;;0.94;53.25
39405;BME280;25121;51.090;17.038;2023-02-10T06:08:51;101776.47;;;0.97;53.11
39405;BME280;25121;51.090;17.038;2023-02-10T06:10:15;101766.00;;;0.94;53.17
39405;BME280;25121;51.090;17.038;2023-02-10T06:11:38;101772.00;;;0.98;53.04
39405;BME280;25121;51.090;17.038;2023-02-10T06:13:00;101790.25;;;1.04;52.98
39405;BME280;25121;51.090;17.038;2023-02-10T06:14:22;101787.53;;;1.05;53.07
39405;BME280;25121;51.090;17.038;2023-02-10T06:15:45;101783.09;;;1.06;52.89
39405;BME280;25121;51.090;17.038;2023-02-10T06:17:08;101782.88;;;1.11;52.88
39405;BME280;25121;51.090;17.038;2023-02-10T06:18:32;101781.06;;;1.11;52.89
39405;BME280;25121;51.090;17.038;2023-02-10T06:19:57;101782.66;;;1.15;53.01
39405;BME280;25121;51.090;17.038;2023-02-10T06:21:20;101786.09;;;1.17;53.18
39405;BME280;25121;51.090;17.038;2023-02-10T06:22:43;101784.25;;;1.19;53.02
39405;BME280;25121;51.090;17.038;2023-02-10T06:24:25;101775.63;;;1.14;52.87
39405;BME280;25121;51.090;17.038;2023-02-10T06:25:52;101798.13;;;1.24;52.76
39405;BME280;25121;51.090;17.038;2023-02-10T06:27:35;101798.97;;;1.25;52.81
39405;BME280;25121;51.090;17.038;2023-02-10T06:28:59;101807.63;;;1.28;52.66
39405;BME280;25121;51.090;17.038;2023-02-10T06:30:28;101801.41;;;1.29;52.89
39405;BME280;25121;51.090;17.038;2023-02-10T06:31:53;101802.09;;;1.33;52.50
39405;BME280;25121;51.090;17.038;2023-02-10T06:33:17;101797.59;;;1.35;52.48
39405;BME280;25121;51.090;17.038;2023-02-10T06:34:46;101804.47;;;1.39;52.47
39405;BME280;25121;51.090;17.038;2023-02-10T06:36:13;101793.09;;;1.37;52.48
39405;BME280;25121;51.090;17.038;2023-02-10T06:37:42;101799.06;;;1.41;52.39
39405;BME280;25121;51.090;17.038;2023-02-10T06:39:08;101805.00;;;1.46;52.13
39405;BME280;25121;51.090;17.038;2023-02-10T06:40:35;101798.84;;;1.45;52.08
39405;BME280;25121;51.090;17.038;2023-02-10T06:42:01;101802.06;;;1.52;52.22
39405;BME280;25121;51.090;17.038;2023-02-10T06:43:23;101806.28;;;1.56;52.18
39405;BME280;25121;51.090;17.038;2023-02-10T06:44:47;101805.19;;;1.60;51.93
39405;BME280;25121;51.090;17.038;2023-02-10T06:46:12;101802.47;;;1.62;51.86
39405;BME280;25121;51.090;17.038;2023-02-10T06:47:39;101807.69;;;1.63;51.93
39405;BME280;25121;51.090;17.038;2023-02-10T06:49:17;101809.31;;;1.66;51.98
39405;BME280;25121;51.090;17.038;2023-02-10T06:50:55;101798.03;;;1.62;52.09
39405;BME280;25121;51.090;17.038;2023-02-10T06:52:20;101810.91;;;1.70;51.89
39405;BME280;25121;51.090;17.038;2023-02-10T06:53:45;101813.50;;;1.71;51.84
39405;BME280;25121;51.090;17.038;2023-02-10T06:55:16;101817.78;;;1.74;51.77
39405;BME280;25121;51.090;17.038;2023-02-10T06:56:41;101817.69;;;1.76;51.62
39405;BME280;25121;51.090;17.038;2023-02-10T06:58:08;101813.09;;;1.79;51.84
39405;BME280;25121;51.090;17.038;2023-02-10T06:59:34;101797.31;;;1.76;51.57
39405;BME280;25121;51.090;17.038;2023-02-10T07:00:58;101814.75;;;1.82;51.90
39405;BME280;25121;51.090;17.038;2023-02-10T07:02:28;101817.22;;;1.85;51.68
39405;BME280;25121;51.090;17.038;2023-02-10T07:03:54;101810.13;;;1.85;51.62
39405;BME280;25121;51.090;17.038;2023-02-10T07:05:19;101802.81;;;1.90;51.56
39405;BME280;25121;51.090;17.038;2023-02-10T07:06:44;101815.22;;;1.90;51.08
39405;BME280;25121;51.090;17.038;2023-02-10T07:08:12;101810.53;;;1.95;51.22
39405;BME280;25121;51.090;17.038;2023-02-10T07:09:38;101807.81;;;1.97;51.34
39405;BME280;25121;51.090;17.038;2023-02-10T07:11:02;101805.91;;;1.99;51.44
39405;BME280;25121;51.090;17.038;2023-02-10T07:12:25;101811.88;;;2.04;51.21
39405;BME280;25121;51.090;17.038;2023-02-10T07:13:49;101809.91;;;2.07;51.19
39405;BME280;25121;51.090;17.038;2023-02-10T07:15:15;101808.03;;;2.09;50.97
39405;BME280;25121;51.090;17.038;2023-02-10T07:16:45;101796.56;;;2.09;51.01
39405;BME280;25121;51.090;17.038;2023-02-10T07:18:16;101805.22;;;2.12;50.89
39405;BME280;25121;51.090;17.038;2023-02-10T07:19:47;101809.22;;;2.21;50.85
39405;BME280;25121;51.090;17.038;2023-02-10T07:21:24;101825.03;;;2.23;50.96
39405;BME280;25121;51.090;17.038;2023-02-10T07:22:52;101822.13;;;2.27;50.80
39405;BME280;25121;51.090;17.038;2023-02-10T07:24:14;101827.22;;;2.32;50.64
39405;BME280;25121;51.090;17.038;2023-02-10T07:25:37;101820.28;;;2.29;50.58
39405;BME280;25121;51.090;17.038;2023-02-10T07:27:02;101821.72;;;2.35;50.67
39405;BME280;25121;51.090;17.038;2023-02-10T07:28:33;101815.34;;;2.39;50.58
39405;BME280;25121;51.090;17.038;2023-02-10T07:30:12;101823.81;;;2.46;50.54
39405;BME280;25121;51.090;17.038;2023-02-10T07:31:35;101812.28;;;2.47;50.38
39405;BME280;25121;51.090;17.038;2023-02-10T07:32:58;101813.44;;;2.58;50.38
39405;BME280;25121;51.090;17.038;2023-02-10T07:34:29;101818.56;;;2.62;49.95